Bookmark and Share
Track history (hours):
 

Northsea Beta

Last reported at 2014-Apr-13 21:33 UTC. Time now 2014-Apr-16 22:26 UTC.
Position N 35°59' W 005°34'.

Length 110 m; draft 8 m.

Type: Ship. MMSI: 248970000.

NotesDate/timePositionNaut miles runAvg speedWind from/ knotsBaromVisibWave heightAir tempDewpointWater temp
2014-Apr-13 21:33N 35°59' W 005°34'10 9.8
2014-Apr-13 20:33N 36°01' W 005°23'1110.6
2014-Apr-13 19:33N 36°03' W 005°10'24110.8
2014-Apr-12 21:17N 37°36' W 000°32'151 3.0
2014-Apr-10 18:23N 40°02' E 000°15'911.5
2014-Apr-10 17:33N 40°07' E 000°26'2311.3
2014-Apr-10 15:33N 40°20' E 000°51'1010.3
2014-Apr-10 14:33N 40°25' E 001°02'1111.3
2014-Apr-10 13:33N 40°31' E 001°14'1211.5
2014-Apr-10 12:33N 40°38' E 001°27'1111.1
2014-Apr-10 11:33N 40°48' E 001°33'1 0.0
2014-Apr-09 08:33N 40°48' E 001°32'1111.5
2014-Apr-09 07:33N 40°40' E 001°43'1010.1
2014-Apr-09 06:33N 40°30' E 001°40'1111.1
2014-Apr-09 05:33N 40°20' E 001°33'1010.5
2014-Apr-09 04:33N 40°11' E 001°27'1110.5
2014-Apr-09 03:33N 40°02' E 001°21'12910.7
2014-Apr-08 15:33N 38°09' W 000°00'1110.9
2014-Apr-08 14:33N 38°00' W 000°08'1111.3
2014-Apr-08 13:33N 37°51' W 000°16'1111.1
2014-Apr-08 12:33N 37°42' W 000°24'1111.3
2014-Apr-08 11:33N 37°33' W 000°32'24110.8
2014-Apr-07 13:19N 35°60' W 005°10'912.3
2014-Apr-07 12:33N 35°59' W 005°21'  
2014-Apr-04 22:22N 38°37' W 009°22'910.9
2014-Apr-04 21:33N 38°41' W 009°13'1 0.8
2014-Apr-04 20:32N 38°41' W 009°12'0 0.0
2014-Apr-04 19:32N 38°41' W 009°12'0 0.0
2014-Apr-04 18:32N 38°41' W 009°12'0 0.0
2014-Apr-04 17:32N 38°41' W 009°12'0 0.0
2014-Apr-04 16:32N 38°41' W 009°12'0 0.0
2014-Apr-04 15:32N 38°41' W 009°12'0 0.0
2014-Apr-04 14:32N 38°41' W 009°12'0 0.0
2014-Apr-04 13:32N 38°41' W 009°12'0 0.0
2014-Apr-04 12:32N 38°41' W 009°12'0 0.0
2014-Apr-04 11:32N 38°41' W 009°12'0 0.0
2014-Apr-04 10:32N 38°41' W 009°12'0 0.0
2014-Apr-04 09:32N 38°41' W 009°12'0 0.0
2014-Apr-04 08:32N 38°41' W 009°12'0 0.0
2014-Apr-04 07:32N 38°41' W 009°12'3 2.8
2014-Apr-04 06:33N 38°41' W 009°15'  

Dump ship's entire track history

sailing weather and tide predictions

Northsea Beta — 9HA2594 — position and weather